Upstream stations:
Downstream station:
SHEF ID: BRIO2 Canadian River at Bridgeport, OK
STATION TYPE:
Regulating: Stage = 15.00, Flow = 8545
STAGE RIV-FLOW
ft cfs
Ccp-Rev Ccp-Rev
(US/Central)
05/12 00:00 12.61 2205
05/12 01:00 12.60 2190
05/12 02:00 12.59 2176
05/12 03:00 12.58 2161
05/12 04:00 9.87 131
05/12 05:00 12.56 2132
05/12 06:00 12.61 2205
05/12 07:00 13.14 3092
05/12 08:00 13.03 2891
05/12 09:00 12.94 2733
05/12 10:00 12.93 2716
05/12 11:00 12.90 2665
05/12 12:00 12.86 2598
05/12 13:00 12.86 2598
05/12 14:00 12.82 2532
05/12 15:00 12.80 2500
05/12 16:00 12.82 2532
05/12 17:00 12.80 2500
05/12 18:00 12.80 2500
05/12 19:00 12.76 2435
05/12 20:00 12.67 2295
05/12 21:00 12.64 2250
05/12 22:00 9.76 100
05/12 23:00 ---- ----